sensor_id;sensor_type;location;lat;lon;timestamp;pressure;altitude;pressure_sealevel;temperature;humidity
68506;BME280;55509;50.680;17.942;2023-01-29T00:01:21;100798.79;;;-2.60;75.61
68506;BME280;55509;50.680;17.942;2023-01-29T00:04:22;100799.33;;;-2.60;75.89
68506;BME280;55509;50.680;17.942;2023-01-29T00:07:24;100804.98;;;-2.60;75.40
68506;BME280;55509;50.680;17.942;2023-01-29T00:10:25;100804.40;;;-2.62;74.89
68506;BME280;55509;50.680;17.942;2023-01-29T00:13:27;100810.28;;;-2.62;75.12
68506;BME280;55509;50.680;17.942;2023-01-29T00:16:28;100806.13;;;-2.58;75.19
68506;BME280;55509;50.680;17.942;2023-01-29T00:19:30;100802.51;;;-2.54;75.12
68506;BME280;55509;50.680;17.942;2023-01-29T00:22:31;100805.48;;;-2.49;75.14
68506;BME280;55509;50.680;17.942;2023-01-29T00:25:33;100806.04;;;-2.44;75.52
68506;BME280;55509;50.680;17.942;2023-01-29T00:28:34;100807.44;;;-2.43;74.92
68506;BME280;55509;50.680;17.942;2023-01-29T00:31:36;100803.80;;;-2.44;75.15
68506;BME280;55509;50.680;17.942;2023-01-29T00:34:38;100807.91;;;-2.44;75.22
68506;BME280;55509;50.680;17.942;2023-01-29T00:37:39;100809.96;;;-2.45;75.39
68506;BME280;55509;50.680;17.942;2023-01-29T00:40:41;100804.36;;;-2.47;75.57
68506;BME280;55509;50.680;17.942;2023-01-29T00:44:01;100803.52;;;-2.46;75.71
68506;BME280;55509;50.680;17.942;2023-01-29T00:47:21;100804.17;;;-2.47;75.90
68506;BME280;55509;50.680;17.942;2023-01-29T00:50:33;100802.95;;;-2.48;75.87
68506;BME280;55509;50.680;17.942;2023-01-29T00:53:35;100795.16;;;-2.49;75.92
68506;BME280;55509;50.680;17.942;2023-01-29T00:56:36;100787.08;;;-2.49;76.06
68506;BME280;55509;50.680;17.942;2023-01-29T00:59:38;100790.84;;;-2.49;76.10
68506;BME280;55509;50.680;17.942;2023-01-29T01:02:39;100786.71;;;-2.49;76.16
68506;BME280;55509;50.680;17.942;2023-01-29T01:06:06;100785.33;;;-2.49;76.37
68506;BME280;55509;50.680;17.942;2023-01-29T01:09:08;100779.10;;;-2.50;76.52
68506;BME280;55509;50.680;17.942;2023-01-29T01:12:29;100771.85;;;-2.50;76.47
68506;BME280;55509;50.680;17.942;2023-01-29T01:15:34;100767.38;;;-2.50;76.68
68506;BME280;55509;50.680;17.942;2023-01-29T01:18:36;100768.24;;;-2.50;76.87
68506;BME280;55509;50.680;17.942;2023-01-29T01:21:38;100763.60;;;-2.49;76.89
68506;BME280;55509;50.680;17.942;2023-01-29T01:24:39;100759.48;;;-2.49;76.99
68506;BME280;55509;50.680;17.942;2023-01-29T01:27:41;100750.04;;;-2.48;77.24
68506;BME280;55509;50.680;17.942;2023-01-29T01:30:42;100745.76;;;-2.48;77.25
68506;BME280;55509;50.680;17.942;2023-01-29T01:33:44;100746.12;;;-2.47;77.55
68506;BME280;55509;50.680;17.942;2023-01-29T01:36:46;100748.91;;;-2.46;77.78
68506;BME280;55509;50.680;17.942;2023-01-29T01:39:48;100752.59;;;-2.45;77.91
68506;BME280;55509;50.680;17.942;2023-01-29T01:42:55;100753.98;;;-2.45;78.05
68506;BME280;55509;50.680;17.942;2023-01-29T01:45:57;100753.97;;;-2.45;78.43
68506;BME280;55509;50.680;17.942;2023-01-29T01:52:00;100731.88;;;-2.42;78.70
68506;BME280;55509;50.680;17.942;2023-01-29T01:55:01;100731.59;;;-2.36;78.74
68506;BME280;55509;50.680;17.942;2023-01-29T01:58:05;100737.52;;;-2.30;78.85
68506;BME280;55509;50.680;17.942;2023-01-29T02:01:09;100738.84;;;-2.23;78.63
68506;BME280;55509;50.680;17.942;2023-01-29T02:04:13;100740.75;;;-2.18;78.80
68506;BME280;55509;50.680;17.942;2023-01-29T02:07:35;100741.33;;;-2.17;78.77
68506;BME280;55509;50.680;17.942;2023-01-29T02:14:56;100751.52;;;-2.20;79.11
68506;BME280;55509;50.680;17.942;2023-01-29T02:17:58;100754.67;;;-2.24;79.26
68506;BME280;55509;50.680;17.942;2023-01-29T02:27:23;100743.39;;;-2.34;79.90
68506;BME280;55509;50.680;17.942;2023-01-29T02:33:53;100739.50;;;-2.37;80.27
68506;BME280;55509;50.680;17.942;2023-01-29T02:40:06;100743.07;;;-2.29;80.27
68506;BME280;55509;50.680;17.942;2023-01-29T02:46:44;100737.63;;;-2.23;80.10
68506;BME280;55509;50.680;17.942;2023-01-29T02:56:01;100746.07;;;-2.27;80.47
68506;BME280;55509;50.680;17.942;2023-01-29T02:59:06;100749.55;;;-2.30;80.70
68506;BME280;55509;50.680;17.942;2023-01-29T03:02:10;100754.23;;;-2.34;80.78
68506;BME280;55509;50.680;17.942;2023-01-29T03:05:16;100758.58;;;-2.38;80.94
68506;BME280;55509;50.680;17.942;2023-01-29T03:08:20;100760.91;;;-2.40;81.13
68506;BME280;55509;50.680;17.942;2023-01-29T03:11:24;100754.06;;;-2.43;81.09
68506;BME280;55509;50.680;17.942;2023-01-29T03:14:35;100752.33;;;-2.47;81.17
68506;BME280;55509;50.680;17.942;2023-01-29T03:18:16;100750.48;;;-2.50;81.28
68506;BME280;55509;50.680;17.942;2023-01-29T03:21:29;100746.95;;;-2.48;81.29
68506;BME280;55509;50.680;17.942;2023-01-29T03:28:12;100745.31;;;-2.42;81.11
68506;BME280;55509;50.680;17.942;2023-01-29T03:31:34;100745.33;;;-2.41;81.17
68506;BME280;55509;50.680;17.942;2023-01-29T03:34:59;100739.36;;;-2.44;81.35
68506;BME280;55509;50.680;17.942;2023-01-29T03:38:04;100739.39;;;-2.47;81.31
68506;BME280;55509;50.680;17.942;2023-01-29T03:41:09;100737.29;;;-2.53;81.59
68506;BME280;55509;50.680;17.942;2023-01-29T03:47:23;100731.73;;;-2.66;81.70
68506;BME280;55509;50.680;17.942;2023-01-29T03:56:56;100735.41;;;-2.89;82.42
68506;BME280;55509;50.680;17.942;2023-01-29T04:00:07;100726.45;;;-2.93;82.57
68506;BME280;55509;50.680;17.942;2023-01-29T04:03:20;100724.42;;;-2.93;82.75
68506;BME280;55509;50.680;17.942;2023-01-29T04:06:25;100720.41;;;-2.90;82.81
68506;BME280;55509;50.680;17.942;2023-01-29T04:09:35;100710.72;;;-2.87;82.79
68506;BME280;55509;50.680;17.942;2023-01-29T04:12:46;100706.40;;;-2.83;82.76
68506;BME280;55509;50.680;17.942;2023-01-29T04:15:51;100700.80;;;-2.81;82.98
68506;BME280;55509;50.680;17.942;2023-01-29T04:18:55;100705.69;;;-2.79;82.84
68506;BME280;55509;50.680;17.942;2023-01-29T04:22:15;100703.66;;;-2.79;82.88
68506;BME280;55509;50.680;17.942;2023-01-29T04:25:21;100697.42;;;-2.79;82.91
68506;BME280;55509;50.680;17.942;2023-01-29T04:28:34;100691.35;;;-2.81;82.90
68506;BME280;55509;50.680;17.942;2023-01-29T04:38:33;100693.90;;;-2.85;82.77
68506;BME280;55509;50.680;17.942;2023-01-29T04:41:51;100698.95;;;-2.88;82.84
68506;BME280;55509;50.680;17.942;2023-01-29T04:51:43;100685.55;;;-2.91;82.80
68506;BME280;55509;50.680;17.942;2023-01-29T05:01:16;100678.55;;;-2.82;82.60
68506;BME280;55509;50.680;17.942;2023-01-29T05:04:19;100681.39;;;-2.76;82.51
68506;BME280;55509;50.680;17.942;2023-01-29T05:07:22;100677.31;;;-2.70;82.53
68506;BME280;55509;50.680;17.942;2023-01-29T05:10:24;100666.48;;;-2.66;82.47
68506;BME280;55509;50.680;17.942;2023-01-29T05:13:27;100660.48;;;-2.65;82.34
68506;BME280;55509;50.680;17.942;2023-01-29T05:16:32;100660.96;;;-2.66;82.16
68506;BME280;55509;50.680;17.942;2023-01-29T05:19:42;100664.06;;;-2.70;82.13
68506;BME280;55509;50.680;17.942;2023-01-29T05:22:43;100662.77;;;-2.72;82.15
68506;BME280;55509;50.680;17.942;2023-01-29T05:25:46;100662.15;;;-2.75;82.22
68506;BME280;55509;50.680;17.942;2023-01-29T05:28:47;100664.93;;;-2.78;82.15
68506;BME280;55509;50.680;17.942;2023-01-29T05:31:49;100666.36;;;-2.81;82.25
68506;BME280;55509;50.680;17.942;2023-01-29T05:34:50;100660.58;;;-2.84;82.59
68506;BME280;55509;50.680;17.942;2023-01-29T05:37:52;100657.24;;;-2.85;82.54
68506;BME280;55509;50.680;17.942;2023-01-29T05:40:53;100660.60;;;-2.87;82.65
68506;BME280;55509;50.680;17.942;2023-01-29T05:43:55;100659.99;;;-2.90;82.79
68506;BME280;55509;50.680;17.942;2023-01-29T05:46:56;100662.67;;;-2.91;82.84
68506;BME280;55509;50.680;17.942;2023-01-29T05:49:58;100661.77;;;-2.93;82.83
68506;BME280;55509;50.680;17.942;2023-01-29T05:52:59;100658.96;;;-2.94;83.12
68506;BME280;55509;50.680;17.942;2023-01-29T05:56:02;100662.58;;;-2.94;82.98
68506;BME280;55509;50.680;17.942;2023-01-29T05:59:04;100663.32;;;-2.93;83.07
68506;BME280;55509;50.680;17.942;2023-01-29T06:02:06;100665.94;;;-2.87;83.06
68506;BME280;55509;50.680;17.942;2023-01-29T06:05:07;100675.36;;;-2.80;82.98
68506;BME280;55509;50.680;17.942;2023-01-29T06:08:09;100676.75;;;-2.71;82.86
68506;BME280;55509;50.680;17.942;2023-01-29T06:11:12;100671.73;;;-2.64;82.87
68506;BME280;55509;50.680;17.942;2023-01-29T06:14:14;100672.70;;;-2.56;82.70
68506;BME280;55509;50.680;17.942;2023-01-29T06:17:15;100674.39;;;-2.53;82.38
68506;BME280;55509;50.680;17.942;2023-01-29T06:20:17;100676.48;;;-2.53;81.99
68506;BME280;55509;50.680;17.942;2023-01-29T06:23:18;100682.35;;;-2.52;81.62
68506;BME280;55509;50.680;17.942;2023-01-29T06:26:19;100683.05;;;-2.52;81.40
68506;BME280;55509;50.680;17.942;2023-01-29T06:29:21;100682.17;;;-2.52;80.96
68506;BME280;55509;50.680;17.942;2023-01-29T06:32:22;100691.25;;;-2.54;80.56
68506;BME280;55509;50.680;17.942;2023-01-29T06:35:24;100696.34;;;-2.56;80.33
68506;BME280;55509;50.680;17.942;2023-01-29T06:38:26;100693.89;;;-2.57;80.32
68506;BME280;55509;50.680;17.942;2023-01-29T06:41:28;100685.39;;;-2.58;79.95
68506;BME280;55509;50.680;17.942;2023-01-29T06:44:29;100681.19;;;-2.60;79.73
68506;BME280;55509;50.680;17.942;2023-01-29T06:47:30;100685.12;;;-2.61;79.53
68506;BME280;55509;50.680;17.942;2023-01-29T06:50:32;100684.77;;;-2.61;79.41
68506;BME280;55509;50.680;17.942;2023-01-29T06:53:34;100684.75;;;-2.61;79.21
68506;BME280;55509;50.680;17.942;2023-01-29T06:56:36;100680.14;;;-2.60;79.21
68506;BME280;55509;50.680;17.942;2023-01-29T06:59:37;100677.58;;;-2.60;79.05
68506;BME280;55509;50.680;17.942;2023-01-29T07:02:39;100681.91;;;-2.59;78.82
68506;BME280;55509;50.680;17.942;2023-01-29T07:05:40;100688.50;;;-2.58;78.91
68506;BME280;55509;50.680;17.942;2023-01-29T07:08:42;100699.23;;;-2.56;78.84
68506;BME280;55509;50.680;17.942;2023-01-29T07:11:43;100703.64;;;-2.54;78.57
68506;BME280;55509;50.680;17.942;2023-01-29T07:14:45;100707.48;;;-2.53;78.37
68506;BME280;55509;50.680;17.942;2023-01-29T07:20:57;100711.35;;;-2.38;77.62
68506;BME280;55509;50.680;17.942;2023-01-29T07:23:59;100709.63;;;-2.29;77.38
68506;BME280;55509;50.680;17.942;2023-01-29T07:27:00;100715.77;;;-2.23;77.09
68506;BME280;55509;50.680;17.942;2023-01-29T07:30:02;100715.84;;;-2.17;77.20
68506;BME280;55509;50.680;17.942;2023-01-29T07:33:06;100713.83;;;-2.11;76.81
68506;BME280;55509;50.680;17.942;2023-01-29T07:36:08;100709.51;;;-2.06;76.36
68506;BME280;55509;50.680;17.942;2023-01-29T07:39:10;100708.45;;;-2.03;75.83
68506;BME280;55509;50.680;17.942;2023-01-29T07:42:12;100715.45;;;-1.99;75.08
68506;BME280;55509;50.680;17.942;2023-01-29T07:45:13;100717.06;;;-1.99;75.39
68506;BME280;55509;50.680;17.942;2023-01-29T07:48:15;100728.84;;;-1.97;75.13
68506;BME280;55509;50.680;17.942;2023-01-29T07:51:16;100734.45;;;-1.94;74.90
68506;BME280;55509;50.680;17.942;2023-01-29T07:54:18;100736.73;;;-1.93;74.21
68506;BME280;55509;50.680;17.942;2023-01-29T07:57:20;100748.14;;;-1.89;74.22
68506;BME280;55509;50.680;17.942;2023-01-29T08:00:22;100748.02;;;-1.83;73.57
68506;BME280;55509;50.680;17.942;2023-01-29T08:03:23;100745.15;;;-1.76;73.11
68506;BME280;55509;50.680;17.942;2023-01-29T08:06:25;100748.26;;;-1.72;72.64
68506;BME280;55509;50.680;17.942;2023-01-29T08:09:26;100750.80;;;-1.69;72.75
68506;BME280;55509;50.680;17.942;2023-01-29T08:12:28;100755.75;;;-1.66;72.28
68506;BME280;55509;50.680;17.942;2023-01-29T08:15:29;100757.78;;;-1.62;72.07
68506;BME280;55509;50.680;17.942;2023-01-29T08:18:31;100754.79;;;-1.59;71.76
68506;BME280;55509;50.680;17.942;2023-01-29T08:21:33;100742.15;;;-1.56;71.29
68506;BME280;55509;50.680;17.942;2023-01-29T08:24:34;100740.77;;;-1.47;70.85
68506;BME280;55509;50.680;17.942;2023-01-29T08:27:36;100733.30;;;-1.29;71.09
68506;BME280;55509;50.680;17.942;2023-01-29T08:30:37;100733.07;;;-1.12;70.34
68506;BME280;55509;50.680;17.942;2023-01-29T08:33:39;100734.09;;;-0.88;70.04
68506;BME280;55509;50.680;17.942;2023-01-29T08:36:40;100734.05;;;-0.68;69.15
68506;BME280;55509;50.680;17.942;2023-01-29T08:39:42;100733.04;;;-0.58;67.89
68506;BME280;55509;50.680;17.942;2023-01-29T08:42:43;100721.86;;;-0.50;68.01
68506;BME280;55509;50.680;17.942;2023-01-29T08:45:45;100715.69;;;-0.39;67.89
68506;BME280;55509;50.680;17.942;2023-01-29T08:48:47;100708.14;;;-0.21;66.57
68506;BME280;55509;50.680;17.942;2023-01-29T08:51:48;100711.04;;;-0.00;66.19
68506;BME280;55509;50.680;17.942;2023-01-29T08:54:51;100714.50;;;0.11;65.30
68506;BME280;55509;50.680;17.942;2023-01-29T08:57:53;100707.39;;;0.22;65.47
68506;BME280;55509;50.680;17.942;2023-01-29T09:00:54;100705.36;;;0.35;65.03
68506;BME280;55509;50.680;17.942;2023-01-29T09:03:56;100705.86;;;0.46;65.22
68506;BME280;55509;50.680;17.942;2023-01-29T09:06:57;100706.63;;;0.73;64.45
68506;BME280;55509;50.680;17.942;2023-01-29T09:09:59;100706.02;;;1.21;64.12
68506;BME280;55509;50.680;17.942;2023-01-29T09:13:00;100694.05;;;1.54;62.19
68506;BME280;55509;50.680;17.942;2023-01-29T09:16:02;100691.98;;;1.48;61.92
68506;BME280;55509;50.680;17.942;2023-01-29T09:19:04;100694.23;;;1.41;61.73
68506;BME280;55509;50.680;17.942;2023-01-29T09:22:06;100686.86;;;1.24;60.61
68506;BME280;55509;50.680;17.942;2023-01-29T09:25:07;100679.06;;;1.10;60.76
68506;BME280;55509;50.680;17.942;2023-01-29T09:28:09;100669.00;;;1.16;60.68
68506;BME280;55509;50.680;17.942;2023-01-29T09:31:11;100655.65;;;1.73;60.13
68506;BME280;55509;50.680;17.942;2023-01-29T09:34:12;100645.42;;;3.36;59.36
68506;BME280;55509;50.680;17.942;2023-01-29T09:37:14;100642.16;;;5.43;56.25
68506;BME280;55509;50.680;17.942;2023-01-29T09:49:29;100631.41;;;4.04;54.16
68506;BME280;55509;50.680;17.942;2023-01-29T09:52:34;100625.33;;;4.47;53.39
68506;BME280;55509;50.680;17.942;2023-01-29T09:55:37;100617.52;;;5.64;51.90
68506;BME280;55509;50.680;17.942;2023-01-29T09:58:40;100599.91;;;7.59;49.80
68506;BME280;55509;50.680;17.942;2023-01-29T10:11:38;100548.96;;;14.90;38.22
68506;BME280;55509;50.680;17.942;2023-01-29T10:21:21;100531.05;;;17.48;30.97
68506;BME280;55509;50.680;17.942;2023-01-29T10:27:35;100530.38;;;17.96;28.66
68506;BME280;55509;50.680;17.942;2023-01-29T10:30:40;100524.41;;;18.14;27.98
68506;BME280;55509;50.680;17.942;2023-01-29T10:33:48;100517.13;;;18.18;27.62
68506;BME280;55509;50.680;17.942;2023-01-29T10:36:51;100520.26;;;18.03;28.24
68506;BME280;55509;50.680;17.942;2023-01-29T10:39:54;100516.85;;;17.08;27.33
68506;BME280;55509;50.680;17.942;2023-01-29T10:43:10;100516.79;;;15.92;29.09
68506;BME280;55509;50.680;17.942;2023-01-29T10:46:18;100511.49;;;15.82;29.20
68506;BME280;55509;50.680;17.942;2023-01-29T10:55:33;100499.55;;;14.63;30.22
68506;BME280;55509;50.680;17.942;2023-01-29T10:58:41;100494.26;;;14.62;29.98
68506;BME280;55509;50.680;17.942;2023-01-29T11:01:44;100492.00;;;14.66;29.51
68506;BME280;55509;50.680;17.942;2023-01-29T11:04:46;100489.24;;;13.74;29.65
68506;BME280;55509;50.680;17.942;2023-01-29T11:07:48;100488.02;;;12.49;30.69
68506;BME280;55509;50.680;17.942;2023-01-29T11:10:53;100490.30;;;11.92;31.27
68506;BME280;55509;50.680;17.942;2023-01-29T11:13:59;100493.41;;;11.51;31.85
68506;BME280;55509;50.680;17.942;2023-01-29T11:17:13;100490.59;;;11.12;32.26
68506;BME280;55509;50.680;17.942;2023-01-29T11:20:25;100489.02;;;10.80;33.10
68506;BME280;55509;50.680;17.942;2023-01-29T11:23:29;100485.94;;;11.05;33.57
68506;BME280;55509;50.680;17.942;2023-01-29T11:26:36;100487.69;;;11.36;32.75
68506;BME280;55509;50.680;17.942;2023-01-29T11:29:40;100483.48;;;10.37;33.48
68506;BME280;55509;50.680;17.942;2023-01-29T11:32:45;100479.23;;;9.40;35.25
68506;BME280;55509;50.680;17.942;2023-01-29T11:35:50;100479.63;;;8.80;36.27
68506;BME280;55509;50.680;17.942;2023-01-29T11:39:04;100479.50;;;8.13;36.87
68506;BME280;55509;50.680;17.942;2023-01-29T11:42:13;100477.84;;;7.39;38.25
68506;BME280;55509;50.680;17.942;2023-01-29T11:48:21;100467.42;;;6.54;40.09
68506;BME280;55509;50.680;17.942;2023-01-29T11:51:24;100468.68;;;5.95;41.26
68506;BME280;55509;50.680;17.942;2023-01-29T11:54:27;100468.77;;;5.39;42.24
68506;BME280;55509;50.680;17.942;2023-01-29T11:57:39;100460.89;;;4.84;43.58
68506;BME280;55509;50.680;17.942;2023-01-29T12:00:44;100455.77;;;4.34;44.87
68506;BME280;55509;50.680;17.942;2023-01-29T12:03:49;100451.89;;;3.97;45.76
68506;BME280;55509;50.680;17.942;2023-01-29T12:06:53;100445.11;;;3.67;46.58
68506;BME280;55509;50.680;17.942;2023-01-29T12:09:55;100443.67;;;3.49;47.14
68506;BME280;55509;50.680;17.942;2023-01-29T12:19:27;100434.73;;;3.18;49.25
68506;BME280;55509;50.680;17.942;2023-01-29T12:32:18;100424.52;;;2.84;51.18
68506;BME280;55509;50.680;17.942;2023-01-29T12:35:32;100416.93;;;2.77;51.41
68506;BME280;55509;50.680;17.942;2023-01-29T12:38:35;100409.35;;;2.69;51.72
68506;BME280;55509;50.680;17.942;2023-01-29T12:41:39;100397.59;;;2.62;52.01
68506;BME280;55509;50.680;17.942;2023-01-29T12:44:49;100391.47;;;2.58;52.39
68506;BME280;55509;50.680;17.942;2023-01-29T12:47:54;100390.00;;;2.53;52.54
68506;BME280;55509;50.680;17.942;2023-01-29T12:51:00;100389.34;;;2.45;52.99
68506;BME280;55509;50.680;17.942;2023-01-29T12:54:13;100384.11;;;2.34;53.62
68506;BME280;55509;50.680;17.942;2023-01-29T12:57:23;100380.88;;;2.17;53.91
68506;BME280;55509;50.680;17.942;2023-01-29T13:00:32;100375.11;;;2.03;54.52
68506;BME280;55509;50.680;17.942;2023-01-29T13:07:16;100375.99;;;1.76;55.59
68506;BME280;55509;50.680;17.942;2023-01-29T13:10:21;100371.03;;;1.70;55.95
68506;BME280;55509;50.680;17.942;2023-01-29T13:16:31;100368.45;;;1.62;56.33
68506;BME280;55509;50.680;17.942;2023-01-29T13:19:35;100371.00;;;1.50;56.73
68506;BME280;55509;50.680;17.942;2023-01-29T13:22:38;100371.23;;;1.45;57.11
68506;BME280;55509;50.680;17.942;2023-01-29T13:25:41;100368.97;;;1.44;57.50
68506;BME280;55509;50.680;17.942;2023-01-29T13:28:43;100363.63;;;1.46;58.11
68506;BME280;55509;50.680;17.942;2023-01-29T13:31:45;100356.34;;;1.46;58.01
68506;BME280;55509;50.680;17.942;2023-01-29T13:34:47;100344.77;;;1.47;58.47
68506;BME280;55509;50.680;17.942;2023-01-29T13:37:50;100344.15;;;1.51;58.36
68506;BME280;55509;50.680;17.942;2023-01-29T13:40:54;100344.15;;;1.51;58.46
68506;BME280;55509;50.680;17.942;2023-01-29T13:43:59;100340.98;;;1.49;58.62
68506;BME280;55509;50.680;17.942;2023-01-29T13:47:02;100343.23;;;1.49;59.26
68506;BME280;55509;50.680;17.942;2023-01-29T13:53:33;100344.88;;;1.43;59.72
68506;BME280;55509;50.680;17.942;2023-01-29T13:56:56;100349.10;;;1.38;60.08
68506;BME280;55509;50.680;17.942;2023-01-29T13:59:59;100349.66;;;1.31;60.26
68506;BME280;55509;50.680;17.942;2023-01-29T14:06:11;100353.06;;;1.12;60.99
68506;BME280;55509;50.680;17.942;2023-01-29T14:12:38;100339.75;;;0.96;62.01
68506;BME280;55509;50.680;17.942;2023-01-29T14:15:40;100326.30;;;0.91;62.21
68506;BME280;55509;50.680;17.942;2023-01-29T14:18:45;100325.88;;;0.87;62.43
68506;BME280;55509;50.680;17.942;2023-01-29T14:21:48;100326.99;;;0.83;62.95
68506;BME280;55509;50.680;17.942;2023-01-29T14:24:52;100335.38;;;0.78;63.28
68506;BME280;55509;50.680;17.942;2023-01-29T14:27:55;100344.48;;;0.74;63.47
68506;BME280;55509;50.680;17.942;2023-01-29T14:30:57;100343.85;;;0.70;63.84
68506;BME280;55509;50.680;17.942;2023-01-29T14:34:00;100345.57;;;0.61;63.81
68506;BME280;55509;50.680;17.942;2023-01-29T14:37:14;100341.06;;;0.54;64.24
68506;BME280;55509;50.680;17.942;2023-01-29T14:40:22;100335.56;;;0.48;64.21
68506;BME280;55509;50.680;17.942;2023-01-29T14:43:25;100335.35;;;0.46;64.74
68506;BME280;55509;50.680;17.942;2023-01-29T14:49:54;100337.80;;;0.40;65.17
68506;BME280;55509;50.680;17.942;2023-01-29T14:53:00;100333.25;;;0.38;65.43
68506;BME280;55509;50.680;17.942;2023-01-29T14:56:11;100334.34;;;0.33;65.73
68506;BME280;55509;50.680;17.942;2023-01-29T14:59:22;100334.55;;;0.27;65.97
68506;BME280;55509;50.680;17.942;2023-01-29T15:02:26;100333.81;;;0.24;66.35
68506;BME280;55509;50.680;17.942;2023-01-29T15:05:35;100330.05;;;0.26;66.68
68506;BME280;55509;50.680;17.942;2023-01-29T15:08:42;100330.45;;;0.29;66.75
68506;BME280;55509;50.680;17.942;2023-01-29T15:11:51;100326.31;;;0.30;66.92
68506;BME280;55509;50.680;17.942;2023-01-29T15:18:02;100316.98;;;0.22;67.23
68506;BME280;55509;50.680;17.942;2023-01-29T15:21:13;100312.90;;;0.18;67.71
68506;BME280;55509;50.680;17.942;2023-01-29T15:24:15;100306.37;;;0.13;68.04
68506;BME280;55509;50.680;17.942;2023-01-29T15:27:17;100301.76;;;0.08;68.11
68506;BME280;55509;50.680;17.942;2023-01-29T15:30:25;100297.30;;;0.03;68.23
68506;BME280;55509;50.680;17.942;2023-01-29T15:33:29;100294.08;;;-0.02;68.67
68506;BME280;55509;50.680;17.942;2023-01-29T15:36:32;100292.05;;;-0.07;68.95
68506;BME280;55509;50.680;17.942;2023-01-29T15:39:40;100294.18;;;-0.12;69.12
68506;BME280;55509;50.680;17.942;2023-01-29T15:42:46;100295.64;;;-0.15;68.99
68506;BME280;55509;50.680;17.942;2023-01-29T15:45:49;100287.98;;;-0.17;69.43
68506;BME280;55509;50.680;17.942;2023-01-29T15:48:52;100283.88;;;-0.16;69.16
68506;BME280;55509;50.680;17.942;2023-01-29T15:51:55;100283.48;;;-0.11;69.42
68506;BME280;55509;50.680;17.942;2023-01-29T15:55:00;100283.45;;;-0.05;69.54
68506;BME280;55509;50.680;17.942;2023-01-29T15:58:03;100284.73;;;-0.02;69.62
68506;BME280;55509;50.680;17.942;2023-01-29T16:01:08;100283.57;;;-0.01;69.50
68506;BME280;55509;50.680;17.942;2023-01-29T16:07:58;100288.80;;;-0.06;69.67
68506;BME280;55509;50.680;17.942;2023-01-29T16:11:01;100289.43;;;-0.08;69.73
68506;BME280;55509;50.680;17.942;2023-01-29T16:14:06;100283.66;;;-0.11;69.77
68506;BME280;55509;50.680;17.942;2023-01-29T16:17:33;100284.65;;;-0.13;70.06
68506;BME280;55509;50.680;17.942;2023-01-29T16:20:36;100283.04;;;-0.15;70.01
68506;BME280;55509;50.680;17.942;2023-01-29T16:24:06;100278.31;;;-0.17;70.73
68506;BME280;55509;50.680;17.942;2023-01-29T16:27:15;100273.95;;;-0.19;70.43
68506;BME280;55509;50.680;17.942;2023-01-29T16:30:26;100275.12;;;-0.20;70.75
68506;BME280;55509;50.680;17.942;2023-01-29T16:33:34;100270.95;;;-0.21;70.76
68506;BME280;55509;50.680;17.942;2023-01-29T16:36:44;100270.90;;;-0.23;71.18
68506;BME280;55509;50.680;17.942;2023-01-29T16:39:47;100262.77;;;-0.24;70.90
68506;BME280;55509;50.680;17.942;2023-01-29T16:42:52;100264.63;;;-0.24;71.22
68506;BME280;55509;50.680;17.942;2023-01-29T16:46:02;100269.60;;;-0.27;71.04
68506;BME280;55509;50.680;17.942;2023-01-29T16:49:40;100274.41;;;-0.28;70.82
68506;BME280;55509;50.680;17.942;2023-01-29T16:52:27;100275.80;;;-0.28;71.20
68506;BME280;55509;50.680;17.942;2023-01-29T16:55:34;100275.02;;;-0.24;71.31
68506;BME280;55509;50.680;17.942;2023-01-29T16:58:36;100277.27;;;-0.18;71.10
68506;BME280;55509;50.680;17.942;2023-01-29T17:01:37;100274.30;;;-0.12;71.30
68506;BME280;55509;50.680;17.942;2023-01-29T17:04:39;100267.79;;;-0.09;71.21
68506;BME280;55509;50.680;17.942;2023-01-29T17:07:42;100264.52;;;-0.09;71.08
68506;BME280;55509;50.680;17.942;2023-01-29T17:10:48;100262.02;;;-0.11;71.05
68506;BME280;55509;50.680;17.942;2023-01-29T17:13:49;100254.18;;;-0.15;71.22
68506;BME280;55509;50.680;17.942;2023-01-29T17:16:55;100255.45;;;-0.19;71.58
68506;BME280;55509;50.680;17.942;2023-01-29T17:20:10;100257.60;;;-0.23;71.98
68506;BME280;55509;50.680;17.942;2023-01-29T17:23:12;100254.23;;;-0.27;72.24
68506;BME280;55509;50.680;17.942;2023-01-29T17:26:16;100257.06;;;-0.31;72.50
68506;BME280;55509;50.680;17.942;2023-01-29T17:29:19;100254.55;;;-0.34;72.97
68506;BME280;55509;50.680;17.942;2023-01-29T17:32:21;100250.65;;;-0.38;73.78
68506;BME280;55509;50.680;17.942;2023-01-29T17:35:22;100251.64;;;-0.40;73.76
68506;BME280;55509;50.680;17.942;2023-01-29T17:38:24;100249.17;;;-0.42;73.88
68506;BME280;55509;50.680;17.942;2023-01-29T17:41:26;100241.66;;;-0.45;74.44
68506;BME280;55509;50.680;17.942;2023-01-29T17:44:28;100245.03;;;-0.49;74.51
68506;BME280;55509;50.680;17.942;2023-01-29T17:47:43;100234.48;;;-0.49;74.87
68506;BME280;55509;50.680;17.942;2023-01-29T17:50:44;100235.25;;;-0.46;75.50
68506;BME280;55509;50.680;17.942;2023-01-29T17:53:48;100231.35;;;-0.43;75.71
68506;BME280;55509;50.680;17.942;2023-01-29T17:56:50;100225.38;;;-0.40;75.91
68506;BME280;55509;50.680;17.942;2023-01-29T17:59:52;100224.70;;;-0.39;76.31
68506;BME280;55509;50.680;17.942;2023-01-29T18:02:53;100221.71;;;-0.41;76.23
68506;BME280;55509;50.680;17.942;2023-01-29T18:05:55;100217.34;;;-0.44;76.67
68506;BME280;55509;50.680;17.942;2023-01-29T18:08:56;100218.84;;;-0.46;76.69
68506;BME280;55509;50.680;17.942;2023-01-29T18:11:58;100216.17;;;-0.49;76.94
68506;BME280;55509;50.680;17.942;2023-01-29T18:15:00;100215.05;;;-0.53;76.78
68506;BME280;55509;50.680;17.942;2023-01-29T18:18:01;100213.55;;;-0.57;77.26
68506;BME280;55509;50.680;17.942;2023-01-29T18:21:03;100212.79;;;-0.60;77.14
68506;BME280;55509;50.680;17.942;2023-01-29T18:24:05;100205.27;;;-0.63;77.43